createdAt,value
2023-05-17T00:01:04.705Z,98135.66
2023-05-17T00:03:31.560Z,98131.44
2023-05-17T00:05:58.626Z,98138.66
2023-05-17T00:08:25.441Z,98131.78
2023-05-17T00:10:52.590Z,98123.22
2023-05-17T00:13:19.415Z,98126.72
2023-05-17T00:15:46.623Z,98122.25
2023-05-17T00:18:13.487Z,98130.09
2023-05-17T00:20:40.655Z,98127.34
2023-05-17T00:23:07.538Z,98114.66
2023-05-17T00:25:34.725Z,98110.19
2023-05-17T00:28:01.552Z,98113.81
2023-05-17T00:30:28.669Z,98118.41
2023-05-17T00:32:55.620Z,98117.66
2023-05-17T00:35:22.851Z,98127.56
2023-05-17T00:37:49.749Z,98117.78
2023-05-17T00:40:16.990Z,98115.13
2023-05-17T00:42:43.827Z,98111.53
2023-05-17T00:45:12.130Z,98104.41
2023-05-17T00:47:39.161Z,98108.88
2023-05-17T00:50:06.776Z,98103.44
2023-05-17T00:52:33.667Z,98113.81
2023-05-17T00:55:00.852Z,98117.31
2023-05-17T00:57:29.344Z,98134.09
2023-05-17T00:59:56.825Z,98127.00
2023-05-17T01:02:23.931Z,98125.03
2023-05-17T01:04:51.313Z,98120.47
2023-05-17T01:07:18.398Z,98118.78
2023-05-17T01:09:45.790Z,98117.81
2023-05-17T01:12:15.927Z,98116.84
2023-05-17T01:14:43.021Z,98115.88
2023-05-17T01:17:16.927Z,98109.72
2023-05-17T01:19:55.207Z,98115.16
2023-05-17T01:22:40.388Z,98114.56
2023-05-17T01:25:26.135Z,98108.16
2023-05-17T01:27:54.558Z,98106.22
2023-05-17T01:30:25.118Z,98114.09
2023-05-17T01:32:53.316Z,98112.28
2023-05-17T01:35:20.471Z,98109.63
2023-05-17T01:37:47.525Z,98118.31
2023-05-17T01:40:14.677Z,98117.59
2023-05-17T01:42:42.705Z,98117.59
2023-05-17T01:45:19.178Z,98112.13
2023-05-17T01:47:50.871Z,98107.81
2023-05-17T01:50:20.932Z,98111.44
2023-05-17T01:52:53.627Z,98109.63
2023-05-17T01:55:26.776Z,98109.63
2023-05-17T01:57:55.972Z,98104.31
2023-05-17T02:00:24.852Z,98116.13
2023-05-17T02:02:51.805Z,98103.09
2023-05-17T02:05:19.162Z,98104.03
2023-05-17T02:07:46.018Z,98107.69
2023-05-17T02:10:13.352Z,98100.66
2023-05-17T02:12:40.357Z,98106.22
2023-05-17T02:15:09.738Z,98094.88
2023-05-17T02:17:36.645Z,98092.22
2023-05-17T02:20:03.977Z,98091.38
2023-05-17T02:22:30.863Z,98100.19
2023-05-17T02:24:57.937Z,98091.38
2023-05-17T02:27:24.796Z,98093.16
2023-05-17T02:29:51.889Z,98097.63
2023-05-17T02:32:18.702Z,98096.69
2023-05-17T02:34:45.941Z,98109.09
2023-05-17T02:37:12.753Z,98102.34
2023-05-17T02:39:39.881Z,98111.16
2023-05-17T02:42:06.840Z,98102.44
2023-05-17T02:44:33.878Z,98112.00
2023-05-17T02:47:00.737Z,98105.84
2023-05-17T02:49:27.873Z,98104.03
2023-05-17T02:51:54.672Z,98097.63
2023-05-17T02:54:21.758Z,98096.69
2023-05-17T02:56:48.646Z,98101.75
2023-05-17T02:59:15.708Z,98108.59
2023-05-17T03:01:42.517Z,98102.91
2023-05-17T03:04:09.635Z,98113.78
2023-05-17T03:06:37.850Z,98105.91
2023-05-17T03:09:04.968Z,98105.09
2023-05-17T03:11:32.007Z,98100.72
2023-05-17T03:13:59.274Z,98101.34
2023-05-17T03:16:26.646Z,98111.72
2023-05-17T03:18:53.957Z,98110.53
2023-05-17T03:21:20.833Z,98112.81
2023-05-17T03:23:47.928Z,98107.31
2023-05-17T03:26:14.681Z,98116.00
2023-05-17T03:28:41.767Z,98111.41
2023-05-17T03:31:08.566Z,98109.59
2023-05-17T03:33:35.913Z,98111.91
2023-05-17T03:36:02.783Z,98112.63
2023-05-17T03:38:29.938Z,98115.16
2023-05-17T03:40:56.880Z,98107.06
2023-05-17T03:43:24.011Z,98111.19
2023-05-17T03:45:50.867Z,98116.03
2023-05-17T03:48:18.083Z,98115.53
2023-05-17T03:50:45.038Z,98124.75
2023-05-17T03:53:12.130Z,98129.69
2023-05-17T03:55:38.971Z,98133.59
2023-05-17T03:58:07.249Z,98122.84
2023-05-17T04:00:34.047Z,98134.16
2023-05-17T04:03:01.180Z,98145.31
2023-05-17T04:05:28.120Z,98148.91
2023-05-17T04:07:55.434Z,98149.13
2023-05-17T04:10:22.542Z,98154.44
2023-05-17T04:12:50.077Z,98155.94
2023-05-17T04:15:16.837Z,98151.44
2023-05-17T04:17:43.996Z,98157.25
2023-05-17T04:20:11.195Z,98165.47
2023-05-17T04:22:38.209Z,98165.94
2023-05-17T04:25:05.340Z,98174.53
2023-05-17T04:27:32.447Z,98175.84
2023-05-17T04:29:59.201Z,98164.03
2023-05-17T04:32:26.430Z,98167.88
2023-05-17T04:34:53.274Z,98165.56
2023-05-17T04:37:20.373Z,98169.69
2023-05-17T04:39:48.139Z,98163.88
2023-05-17T04:42:15.392Z,98168.72
2023-05-17T04:44:42.169Z,98159.13
2023-05-17T04:47:09.399Z,98160.81
2023-05-17T04:49:36.208Z,98167.56
2023-05-17T04:52:05.932Z,98174.66
2023-05-17T04:54:33.053Z,98163.03
2023-05-17T04:57:00.104Z,98165.47
2023-05-17T04:59:26.864Z,98172.47
2023-05-17T05:01:54.055Z,98174.28
2023-05-17T05:04:21.188Z,98180.31
2023-05-17T05:06:48.317Z,98185.31
2023-05-17T05:09:15.154Z,98201.38
2023-05-17T05:11:42.184Z,98193.13
2023-05-17T05:14:09.040Z,98190.91
2023-05-17T05:16:36.610Z,98187.81
2023-05-17T05:19:03.947Z,98193.03
2023-05-17T05:21:31.260Z,98198.38
2023-05-17T05:23:58.127Z,98192.91
2023-05-17T05:26:25.272Z,98200.50
2023-05-17T05:28:52.091Z,98209.06
2023-05-17T05:31:19.190Z,98206.53
2023-05-17T05:33:46.101Z,98204.44
2023-05-17T05:36:13.327Z,98205.84
2023-05-17T05:38:40.183Z,98215.53
2023-05-17T05:41:07.391Z,98214.13
2023-05-17T05:43:36.220Z,98220.59
2023-05-17T05:46:03.866Z,98212.88
2023-05-17T05:48:30.872Z,98218.06
2023-05-17T05:50:58.076Z,98225.63
2023-05-17T05:53:24.901Z,98230.13
2023-05-17T05:55:52.243Z,98230.84
2023-05-17T05:58:19.070Z,98232.25
2023-05-17T06:00:46.199Z,98247.16
2023-05-17T06:03:12.988Z,98242.53
2023-05-17T06:05:40.685Z,98248.13
2023-05-17T06:08:07.625Z,98254.34
2023-05-17T06:10:34.677Z,98250.38
2023-05-17T06:13:01.502Z,98257.00
2023-05-17T06:15:28.952Z,98258.69
2023-05-17T06:17:55.927Z,98263.34
2023-05-17T06:20:23.112Z,98260.09
2023-05-17T06:22:49.940Z,98269.22
2023-05-17T06:25:17.015Z,98272.47
2023-05-17T06:27:43.974Z,98259.09
2023-05-17T06:30:11.543Z,98269.66
2023-05-17T06:32:38.599Z,98278.97
2023-05-17T06:35:07.042Z,98277.88
2023-05-17T06:37:33.916Z,98276.22
2023-05-17T06:40:15.355Z,98272.13
2023-05-17T06:42:43.527Z,98290.16
2023-05-17T06:45:11.957Z,98288.47
2023-05-17T06:47:38.856Z,98291.00
2023-05-17T06:50:07.030Z,98293.81
2023-05-17T06:52:33.889Z,98297.19
2023-05-17T06:55:00.960Z,98301.13
2023-05-17T06:57:27.744Z,98294.78
2023-05-17T06:59:54.809Z,98297.31
2023-05-17T07:02:21.638Z,98300.72
2023-05-17T07:04:48.913Z,98298.31
2023-05-17T07:07:15.883Z,98298.72
2023-05-17T07:09:42.990Z,98296.53
2023-05-17T07:12:09.894Z,98298.97
2023-05-17T07:14:36.927Z,98298.31
2023-05-17T07:17:03.797Z,98314.09
2023-05-17T07:19:31.087Z,98306.41
2023-05-17T07:21:57.955Z,98299.97
2023-05-17T07:24:25.028Z,98298.47
2023-05-17T07:26:52.619Z,98300.88
2023-05-17T07:29:19.948Z,98299.59
2023-05-17T07:31:46.800Z,98303.38
2023-05-17T07:34:14.144Z,98300.31
2023-05-17T07:36:41.134Z,98304.00
2023-05-17T07:39:09.305Z,98305.44
2023-05-17T07:41:36.836Z,98306.13
2023-05-17T07:44:04.035Z,98309.38
2023-05-17T07:46:30.955Z,98313.09
2023-05-17T07:48:58.954Z,98320.22
2023-05-17T07:51:26.407Z,98316.44
2023-05-17T07:53:53.618Z,98316.66
2023-05-17T07:56:20.637Z,98324.00
2023-05-17T07:58:47.966Z,98322.41
2023-05-17T08:01:14.749Z,98325.31
2023-05-17T08:03:48.397Z,98324.66
2023-05-17T08:06:16.156Z,98315.28
2023-05-17T08:08:43.719Z,98310.75
2023-05-17T08:11:11.275Z,98320.81
2023-05-17T08:13:38.330Z,98318.75
2023-05-17T08:16:13.676Z,98330.00
2023-05-17T08:18:42.564Z,98334.03
2023-05-17T08:21:09.929Z,98338.19
2023-05-17T08:23:37.056Z,98341.50
2023-05-17T08:26:03.879Z,98338.47
2023-05-17T08:28:30.948Z,98336.25
2023-05-17T08:30:58.084Z,98337.00
2023-05-17T08:33:26.347Z,98338.34
2023-05-17T08:35:55.365Z,98336.13
2023-05-17T08:38:22.670Z,98340.47
2023-05-17T08:40:56.490Z,98339.31
2023-05-17T08:43:27.359Z,98341.22
2023-05-17T08:45:58.043Z,98343.72
2023-05-17T08:48:26.673Z,98336.69
2023-05-17T08:50:54.582Z,98341.22
2023-05-17T08:53:22.224Z,98348.63
2023-05-17T08:55:50.800Z,98344.47
2023-05-17T08:58:21.456Z,98350.31
2023-05-17T09:00:49.452Z,98353.16
2023-05-17T09:03:18.181Z,98350.53
2023-05-17T09:05:45.406Z,98345.47
2023-05-17T09:08:14.291Z,98347.63
2023-05-17T09:10:41.681Z,98345.59
2023-05-17T09:13:11.674Z,98348.75
2023-05-17T09:15:38.536Z,98346.22
2023-05-17T09:18:05.809Z,98347.19
2023-05-17T09:20:36.657Z,98344.94
2023-05-17T09:23:07.597Z,98353.50
2023-05-17T09:25:34.366Z,98359.75
2023-05-17T09:28:08.085Z,98359.91
2023-05-17T09:30:38.160Z,98367.97
2023-05-17T09:33:08.938Z,98375.50
2023-05-17T09:35:36.863Z,98370.13
2023-05-17T09:38:11.481Z,98364.97
2023-05-17T09:40:39.352Z,98368.53
2023-05-17T09:43:07.024Z,98371.03
2023-05-17T09:45:34.114Z,98372.06
2023-05-17T09:48:30.956Z,98369.75
2023-05-17T09:50:57.904Z,98360.50
2023-05-17T09:53:29.297Z,98360.81
2023-05-17T09:55:57.390Z,98364.41
2023-05-17T09:58:25.379Z,98363.03
2023-05-17T10:00:56.996Z,98371.25
2023-05-17T10:03:27.332Z,98368.78
2023-05-17T10:05:54.333Z,98362.72
2023-05-17T10:08:27.618Z,98370.25
2023-05-17T10:10:56.297Z,98379.41
2023-05-17T10:13:25.887Z,98378.06
2023-05-17T10:15:53.680Z,98374.03
2023-05-17T10:18:21.150Z,98385.66
2023-05-17T10:20:49.199Z,98382.53
2023-05-17T10:23:17.078Z,98383.06
2023-05-17T10:25:43.888Z,98372.41
2023-05-17T10:28:11.814Z,98385.91
2023-05-17T10:30:38.670Z,98383.28
2023-05-17T10:33:08.059Z,98388.34
2023-05-17T10:35:35.887Z,98390.75
2023-05-17T10:38:02.985Z,98384.09
2023-05-17T10:40:30.876Z,98386.56
2023-05-17T10:42:59.439Z,98392.25
2023-05-17T10:45:27.680Z,98396.56
2023-05-17T10:47:55.371Z,98390.25
2023-05-17T10:50:26.148Z,98392.03
2023-05-17T10:52:55.952Z,98396.78
2023-05-17T10:55:23.655Z,98393.44
2023-05-17T10:58:09.933Z,98393.47
2023-05-17T11:00:41.251Z,98400.06
2023-05-17T11:03:14.166Z,98393.59
2023-05-17T11:06:00.550Z,98385.84
2023-05-17T11:08:27.936Z,98391.06
2023-05-17T11:11:14.115Z,98392.06
2023-05-17T11:13:54.324Z,98396.06
2023-05-17T11:16:22.202Z,98386.19
2023-05-17T11:18:53.730Z,98391.03
2023-05-17T11:21:21.623Z,98395.63
2023-05-17T11:23:49.516Z,98394.22
2023-05-17T11:26:18.210Z,98390.84
2023-05-17T11:28:45.279Z,98389.06
2023-05-17T11:31:12.736Z,98395.75
2023-05-17T11:33:43.948Z,98396.53
2023-05-17T11:36:21.585Z,98376.84
2023-05-17T11:38:52.287Z,98385.78
2023-05-17T11:41:26.848Z,98382.34
2023-05-17T11:43:55.518Z,98395.63
2023-05-17T11:46:23.180Z,98394.94
2023-05-17T11:48:51.649Z,98389.16
2023-05-17T11:51:21.362Z,98386.00
2023-05-17T11:53:51.041Z,98394.59
2023-05-17T11:56:19.308Z,98388.41
2023-05-17T11:58:50.788Z,98393.28
2023-05-17T12:01:17.570Z,98400.66
2023-05-17T12:03:44.687Z,98400.03
2023-05-17T12:06:15.372Z,98408.28
2023-05-17T12:08:46.122Z,98400.34
2023-05-17T12:11:14.847Z,98394.63
2023-05-17T12:13:42.882Z,98394.31
2023-05-17T12:16:11.531Z,98393.28
2023-05-17T12:18:39.894Z,98393.44
2023-05-17T12:21:07.459Z,98392.47
2023-05-17T12:23:39.739Z,98400.88
2023-05-17T12:26:06.756Z,98398.75
2023-05-17T12:28:34.820Z,98393.47
2023-05-17T12:31:05.190Z,98389.31
2023-05-17T12:33:33.834Z,98379.97
2023-05-17T12:36:01.782Z,98380.78
2023-05-17T12:38:32.203Z,98386.81
2023-05-17T12:41:00.694Z,98392.22
2023-05-17T12:43:30.124Z,98408.31
2023-05-17T12:46:03.894Z,98400.75
2023-05-17T12:48:31.548Z,98383.47
2023-05-17T12:50:58.463Z,98387.53
2023-05-17T12:53:35.453Z,98382.25
2023-05-17T12:56:02.287Z,98387.47
2023-05-17T12:58:29.425Z,98386.38
2023-05-17T13:00:57.507Z,98384.50
2023-05-17T13:03:25.018Z,98388.59
2023-05-17T13:05:58.638Z,98390.88
2023-05-17T13:08:25.704Z,98393.22
2023-05-17T13:10:52.501Z,98387.44
2023-05-17T13:13:20.414Z,98393.44
2023-05-17T13:15:50.122Z,98392.91
2023-05-17T13:18:18.285Z,98394.28
2023-05-17T13:20:45.325Z,98385.59
2023-05-17T13:23:12.445Z,98391.88
2023-05-17T13:25:39.204Z,98396.41
2023-05-17T13:28:06.303Z,98399.97
2023-05-17T13:30:33.058Z,98400.69
2023-05-17T13:33:00.241Z,98397.72
2023-05-17T13:35:27.160Z,98400.78
2023-05-17T13:37:54.241Z,98397.41
2023-05-17T13:40:21.097Z,98408.09
2023-05-17T13:42:48.229Z,98403.41
2023-05-17T13:45:15.051Z,98404.88
2023-05-17T13:47:42.228Z,98398.50
2023-05-17T13:50:09.864Z,98395.69
2023-05-17T13:52:36.912Z,98401.94
2023-05-17T13:55:03.864Z,98396.22
2023-05-17T13:57:31.038Z,98411.59
2023-05-17T13:59:57.890Z,98418.47
2023-05-17T14:02:24.998Z,98427.63
2023-05-17T14:04:51.938Z,98429.59
2023-05-17T14:07:18.992Z,98431.91
2023-05-17T14:09:46.823Z,98431.94
2023-05-17T14:12:14.007Z,98436.94
2023-05-17T14:14:40.881Z,98425.91
2023-05-17T14:17:07.947Z,98419.97
2023-05-17T14:19:34.945Z,98418.41
2023-05-17T14:22:02.092Z,98431.84
2023-05-17T14:24:28.926Z,98438.28
2023-05-17T14:26:57.868Z,98452.25
2023-05-17T14:29:24.779Z,98444.47
2023-05-17T14:31:51.999Z,98432.25
2023-05-17T14:34:18.916Z,98430.31
2023-05-17T14:36:46.231Z,98438.41
2023-05-17T14:39:13.383Z,98441.22
2023-05-17T14:41:41.638Z,98441.44
2023-05-17T14:44:09.647Z,98439.78
2023-05-17T14:46:36.707Z,98443.63
2023-05-17T14:49:03.565Z,98438.19
2023-05-17T14:51:30.651Z,98435.66
2023-05-17T14:53:58.110Z,98441.59
2023-05-17T14:56:25.620Z,98448.13
2023-05-17T14:58:52.736Z,98455.13
2023-05-17T15:01:19.950Z,98462.66
2023-05-17T15:03:47.025Z,98463.00
2023-05-17T15:06:14.408Z,98461.31
2023-05-17T15:08:41.263Z,98470.38
2023-05-17T15:11:09.453Z,98458.16
2023-05-17T15:13:36.442Z,98457.22
2023-05-17T15:16:03.537Z,98463.47
2023-05-17T15:18:30.326Z,98469.75
2023-05-17T15:20:57.492Z,98474.13
2023-05-17T15:23:24.263Z,98476.44
2023-05-17T15:25:51.431Z,98475.69
2023-05-17T15:28:20.570Z,98477.84
2023-05-17T15:30:47.856Z,98469.03
2023-05-17T15:33:14.870Z,98480.63
2023-05-17T15:35:42.011Z,98486.19
2023-05-17T15:38:08.915Z,98486.53
2023-05-17T15:40:36.160Z,98479.03
2023-05-17T15:43:03.048Z,98481.31
2023-05-17T15:45:30.434Z,98492.31
2023-05-17T15:47:57.614Z,98492.75
2023-05-17T15:50:24.769Z,98496.66
2023-05-17T15:52:51.605Z,98500.34
2023-05-17T15:55:18.765Z,98500.72
2023-05-17T15:57:46.851Z,98513.41
2023-05-17T16:00:14.301Z,98515.22
2023-05-17T16:02:41.340Z,98515.44
2023-05-17T16:05:08.791Z,98522.47
2023-05-17T16:07:35.569Z,98520.75
2023-05-17T16:10:02.776Z,98531.50
2023-05-17T16:12:29.685Z,98530.91
2023-05-17T16:14:56.833Z,98533.91
2023-05-17T16:17:23.705Z,98545.72
2023-05-17T16:19:51.155Z,98550.53
2023-05-17T16:22:18.027Z,98548.72
2023-05-17T16:24:45.075Z,98548.31
2023-05-17T16:27:11.902Z,98552.25
2023-05-17T16:29:40.430Z,98556.00
2023-05-17T16:32:07.926Z,98564.19
2023-05-17T16:34:34.981Z,98564.44
2023-05-17T16:37:02.582Z,98561.25
2023-05-17T16:39:29.847Z,98570.28
2023-05-17T16:41:56.735Z,98577.53
2023-05-17T16:44:23.805Z,98571.59
2023-05-17T16:46:50.827Z,98574.56
2023-05-17T16:49:17.879Z,98579.25
2023-05-17T16:51:45.533Z,98588.59
2023-05-17T16:54:12.651Z,98584.69
2023-05-17T16:56:39.444Z,98596.66
2023-05-17T16:59:06.581Z,98601.34
2023-05-17T17:01:33.412Z,98606.78
2023-05-17T17:04:00.757Z,98602.44
2023-05-17T17:06:27.738Z,98608.91
2023-05-17T17:08:54.916Z,98621.00
2023-05-17T17:11:24.374Z,98624.91
2023-05-17T17:13:51.437Z,98630.44
2023-05-17T17:16:18.447Z,98626.41
2023-05-17T17:18:47.233Z,98629.50
2023-05-17T17:21:14.748Z,98638.69
2023-05-17T17:23:43.254Z,98639.75
2023-05-17T17:26:11.367Z,98640.91
2023-05-17T17:28:38.628Z,98649.19
2023-05-17T17:31:06.312Z,98651.97
2023-05-17T17:33:33.650Z,98660.22
2023-05-17T17:36:00.573Z,98655.13
2023-05-17T17:38:27.772Z,98670.38
2023-05-17T17:40:56.507Z,98671.56
2023-05-17T17:43:23.566Z,98662.72
2023-05-17T17:45:50.639Z,98669.09
2023-05-17T17:48:17.705Z,98670.13
2023-05-17T17:50:44.498Z,98673.84
2023-05-17T17:53:11.654Z,98672.25
2023-05-17T17:55:38.459Z,98678.63
2023-05-17T17:58:05.468Z,98689.41
2023-05-17T18:00:32.407Z,98686.13
2023-05-17T18:02:59.573Z,98691.81
2023-05-17T18:05:26.538Z,98695.59
2023-05-17T18:07:53.708Z,98695.69
2023-05-17T18:10:20.555Z,98695.88
2023-05-17T18:12:49.582Z,98700.53
2023-05-17T18:15:17.860Z,98706.97
2023-05-17T18:17:44.906Z,98707.91
2023-05-17T18:20:11.993Z,98711.91
2023-05-17T18:22:39.128Z,98711.16
2023-05-17T18:25:06.089Z,98715.69
2023-05-17T18:27:33.549Z,98718.63
2023-05-17T18:30:00.390Z,98723.94
2023-05-17T18:32:27.604Z,98734.63
2023-05-17T18:34:55.177Z,98725.06
2023-05-17T18:37:22.547Z,98733.88
2023-05-17T18:39:49.469Z,98729.72
2023-05-17T18:42:16.552Z,98740.41
2023-05-17T18:44:43.345Z,98744.94
2023-05-17T18:47:11.819Z,98747.59
2023-05-17T18:49:41.925Z,98754.78
2023-05-17T18:52:09.029Z,98751.38
2023-05-17T18:54:35.790Z,98762.94
2023-05-17T18:57:02.915Z,98764.75
2023-05-17T18:59:29.756Z,98769.16
2023-05-17T19:01:56.866Z,98767.47
2023-05-17T19:04:23.714Z,98772.69
2023-05-17T19:06:50.959Z,98767.41
2023-05-17T19:09:17.737Z,98779.00
2023-05-17T19:11:44.767Z,98780.94
2023-05-17T19:14:11.592Z,98789.72
2023-05-17T19:16:39.161Z,98791.53
2023-05-17T19:19:07.844Z,98790.78
2023-05-17T19:21:35.258Z,98790.84
2023-05-17T19:24:02.120Z,98790.94
2023-05-17T19:26:29.229Z,98790.09
2023-05-17T19:28:55.992Z,98796.22
2023-05-17T19:31:23.080Z,98795.59
2023-05-17T19:33:49.840Z,98801.94
2023-05-17T19:36:16.994Z,98809.00
2023-05-17T19:38:43.743Z,98805.59
2023-05-17T19:41:10.816Z,98809.38
2023-05-17T19:43:38.658Z,98811.34
2023-05-17T19:46:09.361Z,98813.22
2023-05-17T19:48:36.589Z,98825.72
2023-05-17T19:51:03.766Z,98822.31
2023-05-17T19:53:40.171Z,98822.41
2023-05-17T19:56:11.269Z,98823.25
2023-05-17T19:58:38.075Z,98820.00
2023-05-17T20:01:05.232Z,98829.94
2023-05-17T20:03:32.072Z,98826.59
2023-05-17T20:05:59.200Z,98832.94
2023-05-17T20:08:26.243Z,98831.25
2023-05-17T20:10:53.353Z,98830.47
2023-05-17T20:13:24.082Z,98829.72
2023-05-17T20:15:51.470Z,98835.09
2023-05-17T20:18:18.605Z,98836.13
2023-05-17T20:20:45.753Z,98832.72
2023-05-17T20:23:13.559Z,98845.19
2023-05-17T20:25:41.919Z,98847.81
2023-05-17T20:28:08.689Z,98839.03
2023-05-17T20:30:36.089Z,98844.41
2023-05-17T20:33:02.961Z,98841.00
2023-05-17T20:35:30.068Z,98834.09
2023-05-17T20:37:56.888Z,98844.69
2023-05-17T20:40:24.045Z,98848.53
2023-05-17T20:42:53.024Z,98855.13
2023-05-17T20:45:20.160Z,98855.34
2023-05-17T20:47:47.071Z,98852.97
2023-05-17T20:50:15.488Z,98860.25
2023-05-17T20:52:42.314Z,98854.34
2023-05-17T20:55:09.708Z,98861.56
2023-05-17T20:57:36.644Z,98869.06
2023-05-17T21:00:05.381Z,98860.53
2023-05-17T21:02:32.265Z,98875.81
2023-05-17T21:05:00.888Z,98870.69
2023-05-17T21:07:30.191Z,98875.38
2023-05-17T21:09:57.266Z,98879.88
2023-05-17T21:12:24.303Z,98884.41
2023-05-17T21:15:03.663Z,98883.72
2023-05-17T21:17:35.337Z,98879.44
2023-05-17T21:20:02.235Z,98882.06
2023-05-17T21:22:29.426Z,98890.00
2023-05-17T21:24:56.229Z,98888.25
2023-05-17T21:27:23.269Z,98891.81
2023-05-17T21:29:50.061Z,98900.75
2023-05-17T21:32:17.582Z,98894.78
2023-05-17T21:34:45.029Z,98901.97
2023-05-17T21:37:12.401Z,98907.38
2023-05-17T21:39:39.252Z,98902.94
2023-05-17T21:42:06.532Z,98909.34
2023-05-17T21:44:33.386Z,98900.72
2023-05-17T21:47:00.764Z,98908.66
2023-05-17T21:49:28.593Z,98906.06
2023-05-17T21:51:55.630Z,98908.91
2023-05-17T21:54:24.215Z,98910.84
2023-05-17T21:56:51.559Z,98911.78
2023-05-17T21:59:18.371Z,98909.31
2023-05-17T22:01:45.870Z,98906.66
2023-05-17T22:04:12.759Z,98909.50
2023-05-17T22:06:39.826Z,98916.59
2023-05-17T22:09:06.798Z,98914.81
2023-05-17T22:11:38.306Z,98921.97
2023-05-17T22:14:08.180Z,98919.25
2023-05-17T22:16:35.982Z,98920.19
2023-05-17T22:19:04.020Z,98927.25
2023-05-17T22:21:31.998Z,98922.97
2023-05-17T22:23:59.512Z,98920.44
2023-05-17T22:26:27.890Z,98926.63
2023-05-17T22:28:55.812Z,98920.50
2023-05-17T22:31:23.030Z,98920.56
2023-05-17T22:33:50.518Z,98927.63
2023-05-17T22:36:19.213Z,98927.63
2023-05-17T22:38:46.444Z,98927.63
2023-05-17T22:41:13.538Z,98931.06
2023-05-17T22:43:40.376Z,98928.41
2023-05-17T22:46:07.511Z,98934.72
2023-05-17T22:48:37.449Z,98933.16
2023-05-17T22:51:04.779Z,98932.38
2023-05-17T22:53:31.879Z,98934.34
2023-05-17T22:55:58.994Z,98925.53
2023-05-17T22:58:26.016Z,98931.84
2023-05-17T23:00:53.239Z,98935.41
2023-05-17T23:03:20.285Z,98927.56
2023-05-17T23:05:47.741Z,98929.44
2023-05-17T23:08:17.725Z,98931.16
2023-05-17T23:10:44.923Z,98925.00
2023-05-17T23:13:12.154Z,98935.66
2023-05-17T23:15:40.744Z,98933.09
2023-05-17T23:18:07.731Z,98940.16
2023-05-17T23:20:35.171Z,98946.34
2023-05-17T23:23:02.194Z,98947.22
2023-05-17T23:25:29.684Z,98945.56
2023-05-17T23:27:58.231Z,98949.09
2023-05-17T23:30:26.447Z,98951.63
2023-05-17T23:32:55.292Z,98954.44
2023-05-17T23:35:23.661Z,98957.94
2023-05-17T23:37:50.603Z,98956.25
2023-05-17T23:40:17.682Z,98957.16
2023-05-17T23:42:44.477Z,98958.00
2023-05-17T23:45:11.552Z,98955.53
2023-05-17T23:47:41.069Z,98966.09
2023-05-17T23:50:12.118Z,98962.66
2023-05-17T23:52:39.314Z,98964.44
2023-05-17T23:55:07.422Z,98961.88
2023-05-17T23:57:35.379Z,98967.31
